KCYS/CYS METAR and TAF weather

Enter ICAO airport designator
Station Type Date Time Source
KCYS METAR 2018/07/16 23:53 UTC NOAA

KCYS 162353Z 18009KT 10SM CLR 25/15 A3023 RMK AO2 SLP154 60001 T02500150 10289 20244 58007


Station Type Date Time Source
KCYS Decoded METAR 2018/07/16 23:53 UTC NOAA

CHEYENNE AIRPORT, WY, United States (KCYS) 41-09N 104-48W 1865M
Jul 16, 2018 - 07:53 PM EDT / 2018.07.16 2353 UTC
Wind: from the S (180 degrees) at 10 MPH (9 KT):0
Visibility: 10 mile(s):0
Sky conditions: clear
Temperature: 77.0 F (25.0 C)
Dew Point: 59.0 F (15.0 C)
Relative Humidity: 53%
Pressure (altimeter): 30.23 in. Hg (1023 hPa)
Pressure tendency: 0.02 inches (0.7 hPa) lower than three hours ago
ob: KCYS 162353Z 18009KT 10SM CLR 25/15 A3023 RMK AO2 SLP154 60001 T02500150 10289 20244 58007
cycle: 0

Station Type Date Time Source
KCYS TAF 2018/07/16 18:33 UTC NOAA

TAF KCYS 161730Z 1618/1718 15010KT P6SM SCT100
FM162200 16010KT P6SM VCTS BKN050CB BKN100
FM170300 20008KT P6SM VCSH BKN100


Example: see airport list